sensor_id;sensor_type;location;lat;lon;timestamp;pressure;altitude;pressure_sealevel;temperature;humidity
28027;BME280;15344;52.342;-1.290;2023-04-06T00:01:11;99996.32;;;11.81;100.00
28027;BME280;15344;52.342;-1.290;2023-04-06T00:03:36;99997.02;;;12.25;100.00
28027;BME280;15344;52.342;-1.290;2023-04-06T00:06:01;99987.86;;;12.23;100.00
28027;BME280;15344;52.342;-1.290;2023-04-06T00:08:27;99984.79;;;12.19;100.00
28027;BME280;15344;52.342;-1.290;2023-04-06T00:10:52;99974.77;;;12.93;100.00
28027;BME280;15344;52.342;-1.290;2023-04-06T00:13:17;99972.97;;;13.10;100.00
28027;BME280;15344;52.342;-1.290;2023-04-06T00:15:43;99969.09;;;12.89;100.00
28027;BME280;15344;52.342;-1.290;2023-04-06T00:18:09;99969.15;;;13.01;100.00
28027;BME280;15344;52.342;-1.290;2023-04-06T00:20:34;99966.62;;;12.13;100.00
28027;BME280;15344;52.342;-1.290;2023-04-06T00:22:59;99967.41;;;12.20;100.00
28027;BME280;15344;52.342;-1.290;2023-04-06T00:25:26;99964.37;;;12.68;100.00
28027;BME280;15344;52.342;-1.290;2023-04-06T00:27:49;99958.01;;;12.32;100.00
28027;BME280;15344;52.342;-1.290;2023-04-06T00:30:15;99954.41;;;13.01;100.00
28027;BME280;15344;52.342;-1.290;2023-04-06T00:32:40;99950.31;;;12.64;100.00
28027;BME280;15344;52.342;-1.290;2023-04-06T00:35:06;99952.66;;;12.63;100.00
28027;BME280;15344;52.342;-1.290;2023-04-06T00:37:31;99950.08;;;12.46;100.00
28027;BME280;15344;52.342;-1.290;2023-04-06T00:39:56;99945.46;;;12.40;100.00
28027;BME280;15344;52.342;-1.290;2023-04-06T00:42:22;99944.99;;;12.28;100.00
28027;BME280;15344;52.342;-1.290;2023-04-06T00:44:47;99942.42;;;12.65;100.00
28027;BME280;15344;52.342;-1.290;2023-04-06T00:47:12;99937.63;;;13.32;100.00
28027;BME280;15344;52.342;-1.290;2023-04-06T00:49:37;99934.83;;;12.92;100.00
28027;BME280;15344;52.342;-1.290;2023-04-06T00:52:03;99932.27;;;12.84;100.00
28027;BME280;15344;52.342;-1.290;2023-04-06T00:54:33;99933.38;;;13.16;100.00
28027;BME280;15344;52.342;-1.290;2023-04-06T00:56:53;99930.60;;;13.49;100.00
28027;BME280;15344;52.342;-1.290;2023-04-06T00:59:19;99927.75;;;13.75;100.00
28027;BME280;15344;52.342;-1.290;2023-04-06T01:01:44;99927.22;;;13.54;100.00
28027;BME280;15344;52.342;-1.290;2023-04-06T01:04:09;99922.96;;;12.91;100.00
28027;BME280;15344;52.342;-1.290;2023-04-06T01:06:34;99916.81;;;13.05;100.00
28027;BME280;15344;52.342;-1.290;2023-04-06T01:08:59;99911.87;;;13.41;100.00
28027;BME280;15344;52.342;-1.290;2023-04-06T01:11:24;99906.41;;;13.11;100.00
28027;BME280;15344;52.342;-1.290;2023-04-06T01:13:50;99903.16;;;13.35;100.00
28027;BME280;15344;52.342;-1.290;2023-04-06T01:16:15;99897.88;;;13.54;100.00
28027;BME280;15344;52.342;-1.290;2023-04-06T01:18:41;99897.10;;;13.94;100.00
28027;BME280;15344;52.342;-1.290;2023-04-06T01:21:06;99894.64;;;13.69;100.00
28027;BME280;15344;52.342;-1.290;2023-04-06T01:23:31;99897.11;;;13.91;100.00
28027;BME280;15344;52.342;-1.290;2023-04-06T01:25:56;99890.86;;;13.59;100.00
28027;BME280;15344;52.342;-1.290;2023-04-06T01:28:21;99886.25;;;14.06;100.00
28027;BME280;15344;52.342;-1.290;2023-04-06T01:30:47;99883.22;;;13.89;100.00
28027;BME280;15344;52.342;-1.290;2023-04-06T01:33:12;99880.61;;;13.41;100.00
28027;BME280;15344;52.342;-1.290;2023-04-06T01:35:37;99877.64;;;14.10;100.00
28027;BME280;15344;52.342;-1.290;2023-04-06T01:38:02;99876.04;;;13.74;100.00
28027;BME280;15344;52.342;-1.290;2023-04-06T01:40:27;99876.20;;;13.36;100.00
28027;BME280;15344;52.342;-1.290;2023-04-06T01:42:52;99874.50;;;13.41;100.00
28027;BME280;15344;52.342;-1.290;2023-04-06T01:45:17;99873.01;;;13.14;100.00
28027;BME280;15344;52.342;-1.290;2023-04-06T01:47:43;99870.95;;;13.22;100.00
28027;BME280;15344;52.342;-1.290;2023-04-06T01:50:09;99868.02;;;13.17;100.00
28027;BME280;15344;52.342;-1.290;2023-04-06T01:52:34;99866.86;;;13.47;100.00
28027;BME280;15344;52.342;-1.290;2023-04-06T01:54:59;99865.43;;;13.48;100.00
28027;BME280;15344;52.342;-1.290;2023-04-06T01:57:24;99859.57;;;13.63;100.00
28027;BME280;15344;52.342;-1.290;2023-04-06T01:59:50;99858.41;;;13.06;100.00
28027;BME280;15344;52.342;-1.290;2023-04-06T02:02:15;99858.70;;;13.50;100.00
28027;BME280;15344;52.342;-1.290;2023-04-06T02:04:41;99853.51;;;13.35;100.00
28027;BME280;15344;52.342;-1.290;2023-04-06T02:07:06;99848.86;;;13.22;100.00
28027;BME280;15344;52.342;-1.290;2023-04-06T02:09:31;99844.64;;;13.42;100.00
28027;BME280;15344;52.342;-1.290;2023-04-06T02:11:57;99847.44;;;13.22;100.00
28027;BME280;15344;52.342;-1.290;2023-04-06T02:14:25;99844.28;;;13.56;100.00
28027;BME280;15344;52.342;-1.290;2023-04-06T02:16:47;99843.60;;;13.19;100.00
28027;BME280;15344;52.342;-1.290;2023-04-06T02:19:12;99833.64;;;13.40;100.00
28027;BME280;15344;52.342;-1.290;2023-04-06T02:21:38;99833.61;;;13.09;100.00
28027;BME280;15344;52.342;-1.290;2023-04-06T02:24:03;99833.69;;;13.23;100.00
28027;BME280;15344;52.342;-1.290;2023-04-06T02:26:28;99829.07;;;13.23;100.00
28027;BME280;15344;52.342;-1.290;2023-04-06T02:28:53;99829.13;;;13.40;100.00
28027;BME280;15344;52.342;-1.290;2023-04-06T02:31:19;99825.15;;;13.09;100.00
28027;BME280;15344;52.342;-1.290;2023-04-06T02:33:44;99821.47;;;13.60;100.00
28027;BME280;15344;52.342;-1.290;2023-04-06T02:36:09;99815.63;;;13.97;100.00
28027;BME280;15344;52.342;-1.290;2023-04-06T02:38:35;99815.87;;;14.00;100.00
28027;BME280;15344;52.342;-1.290;2023-04-06T02:41:06;99808.68;;;13.63;100.00
28027;BME280;15344;52.342;-1.290;2023-04-06T02:43:26;99810.04;;;13.55;100.00
28027;BME280;15344;52.342;-1.290;2023-04-06T02:45:52;99811.99;;;13.54;100.00
28027;BME280;15344;52.342;-1.290;2023-04-06T02:48:17;99811.75;;;13.42;100.00
28027;BME280;15344;52.342;-1.290;2023-04-06T02:50:42;99808.07;;;13.88;100.00
28027;BME280;15344;52.342;-1.290;2023-04-06T02:53:07;99810.70;;;13.59;100.00
28027;BME280;15344;52.342;-1.290;2023-04-06T02:55:33;99807.45;;;13.05;100.00
28027;BME280;15344;52.342;-1.290;2023-04-06T02:57:59;99806.04;;;12.86;100.00
28027;BME280;15344;52.342;-1.290;2023-04-06T03:00:24;99801.44;;;13.27;100.00
28027;BME280;15344;52.342;-1.290;2023-04-06T03:02:50;99792.60;;;13.89;100.00
28027;BME280;15344;52.342;-1.290;2023-04-06T03:05:15;99790.29;;;13.67;100.00
28027;BME280;15344;52.342;-1.290;2023-04-06T03:07:40;99791.94;;;13.93;100.00
28027;BME280;15344;52.342;-1.290;2023-04-06T03:10:07;99792.23;;;13.96;100.00
28027;BME280;15344;52.342;-1.290;2023-04-06T03:12:31;99791.31;;;14.03;100.00
28027;BME280;15344;52.342;-1.290;2023-04-06T03:14:57;99791.69;;;14.32;100.00
28027;BME280;15344;52.342;-1.290;2023-04-06T03:17:22;99784.42;;;13.93;100.00
28027;BME280;15344;52.342;-1.290;2023-04-06T03:19:47;99783.02;;;14.65;100.00
28027;BME280;15344;52.342;-1.290;2023-04-06T03:22:13;99781.62;;;13.67;100.00
28027;BME280;15344;52.342;-1.290;2023-04-06T03:24:38;99779.02;;;14.61;100.00
28027;BME280;15344;52.342;-1.290;2023-04-06T03:27:03;99778.20;;;14.20;100.00
28027;BME280;15344;52.342;-1.290;2023-04-06T03:29:28;99777.12;;;14.83;100.00
28027;BME280;15344;52.342;-1.290;2023-04-06T03:31:54;99778.34;;;14.55;100.00
28027;BME280;15344;52.342;-1.290;2023-04-06T03:34:19;99779.07;;;13.91;100.00
28027;BME280;15344;52.342;-1.290;2023-04-06T03:36:45;99776.06;;;14.31;100.00
28027;BME280;15344;52.342;-1.290;2023-04-06T03:39:10;99773.77;;;14.91;100.00
28027;BME280;15344;52.342;-1.290;2023-04-06T03:41:35;99771.42;;;14.98;99.70
28027;BME280;15344;52.342;-1.290;2023-04-06T03:44:00;99769.79;;;14.47;100.00
28027;BME280;15344;52.342;-1.290;2023-04-06T03:46:26;99766.05;;;14.17;100.00
28027;BME280;15344;52.342;-1.290;2023-04-06T03:48:51;99756.50;;;14.48;100.00
28027;BME280;15344;52.342;-1.290;2023-04-06T03:51:17;99753.94;;;14.85;100.00
28027;BME280;15344;52.342;-1.290;2023-04-06T03:53:43;99752.61;;;14.49;100.00
28027;BME280;15344;52.342;-1.290;2023-04-06T03:56:08;99748.40;;;14.79;100.00
28027;BME280;15344;52.342;-1.290;2023-04-06T03:58:33;99744.70;;;14.63;100.00
28027;BME280;15344;52.342;-1.290;2023-04-06T04:00:58;99739.63;;;14.59;100.00
28027;BME280;15344;52.342;-1.290;2023-04-06T04:03:24;99735.15;;;14.76;100.00
28027;BME280;15344;52.342;-1.290;2023-04-06T04:05:49;99730.97;;;14.98;100.00
28027;BME280;15344;52.342;-1.290;2023-04-06T04:08:15;99728.11;;;14.43;100.00
28027;BME280;15344;52.342;-1.290;2023-04-06T04:10:41;99728.50;;;13.82;100.00
28027;BME280;15344;52.342;-1.290;2023-04-06T04:13:06;99722.80;;;14.26;100.00
28027;BME280;15344;52.342;-1.290;2023-04-06T04:15:37;99724.89;;;13.62;100.00
28027;BME280;15344;52.342;-1.290;2023-04-06T04:17:57;99721.58;;;13.06;100.00
28027;BME280;15344;52.342;-1.290;2023-04-06T04:20:23;99720.46;;;13.79;100.00
28027;BME280;15344;52.342;-1.290;2023-04-06T04:22:48;99719.77;;;13.93;100.00
28027;BME280;15344;52.342;-1.290;2023-04-06T04:25:14;99710.91;;;13.80;100.00
28027;BME280;15344;52.342;-1.290;2023-04-06T04:27:39;99706.29;;;13.39;100.00
28027;BME280;15344;52.342;-1.290;2023-04-06T04:30:06;99706.71;;;13.45;100.00
28027;BME280;15344;52.342;-1.290;2023-04-06T04:32:30;99711.66;;;14.04;100.00
28027;BME280;15344;52.342;-1.290;2023-04-06T04:34:56;99713.62;;;13.72;100.00
28027;BME280;15344;52.342;-1.290;2023-04-06T04:37:21;99713.40;;;13.84;100.00
28027;BME280;15344;52.342;-1.290;2023-04-06T04:39:46;99712.29;;;13.18;100.00
28027;BME280;15344;52.342;-1.290;2023-04-06T04:42:12;99718.54;;;14.34;100.00
28027;BME280;15344;52.342;-1.290;2023-04-06T04:44:37;99723.48;;;14.84;100.00
28027;BME280;15344;52.342;-1.290;2023-04-06T04:47:03;99718.05;;;14.51;100.00
28027;BME280;15344;52.342;-1.290;2023-04-06T04:49:28;99710.54;;;14.85;100.00
28027;BME280;15344;52.342;-1.290;2023-04-06T04:51:53;99706.01;;;14.47;100.00
28027;BME280;15344;52.342;-1.290;2023-04-06T04:54:19;99707.38;;;14.01;100.00
28027;BME280;15344;52.342;-1.290;2023-04-06T04:56:45;99706.32;;;14.58;100.00
28027;BME280;15344;52.342;-1.290;2023-04-06T04:59:11;99704.73;;;14.95;100.00
28027;BME280;15344;52.342;-1.290;2023-04-06T05:01:37;99712.06;;;14.07;100.00
28027;BME280;15344;52.342;-1.290;2023-04-06T05:04:01;99722.35;;;14.08;100.00
28027;BME280;15344;52.342;-1.290;2023-04-06T05:06:27;99718.25;;;14.17;100.00
28027;BME280;15344;52.342;-1.290;2023-04-06T05:08:52;99719.64;;;14.42;100.00
28027;BME280;15344;52.342;-1.290;2023-04-06T05:11:18;99712.44;;;14.24;100.00
28027;BME280;15344;52.342;-1.290;2023-04-06T05:13:44;99714.05;;;13.93;100.00
28027;BME280;15344;52.342;-1.290;2023-04-06T05:16:10;99723.50;;;13.65;100.00
28027;BME280;15344;52.342;-1.290;2023-04-06T05:18:35;99731.52;;;13.29;100.00
28027;BME280;15344;52.342;-1.290;2023-04-06T05:21:01;99734.45;;;14.20;100.00
28027;BME280;15344;52.342;-1.290;2023-04-06T05:23:26;99736.55;;;14.82;100.00
28027;BME280;15344;52.342;-1.290;2023-04-06T05:25:51;99737.79;;;14.36;100.00
28027;BME280;15344;52.342;-1.290;2023-04-06T05:28:17;99728.81;;;14.55;100.00
28027;BME280;15344;52.342;-1.290;2023-04-06T05:30:42;99726.16;;;14.44;100.00
28027;BME280;15344;52.342;-1.290;2023-04-06T05:33:08;99731.06;;;13.96;100.00
28027;BME280;15344;52.342;-1.290;2023-04-06T05:35:33;99728.11;;;14.08;100.00
28027;BME280;15344;52.342;-1.290;2023-04-06T05:37:58;99727.90;;;13.74;100.00
28027;BME280;15344;52.342;-1.290;2023-04-06T05:40:24;99725.60;;;14.02;100.00
28027;BME280;15344;52.342;-1.290;2023-04-06T05:42:49;99727.32;;;14.64;100.00
28027;BME280;15344;52.342;-1.290;2023-04-06T05:45:15;99723.58;;;14.32;100.00
28027;BME280;15344;52.342;-1.290;2023-04-06T05:47:40;99718.39;;;14.44;100.00
28027;BME280;15344;52.342;-1.290;2023-04-06T05:50:06;99721.17;;;14.42;100.00
28027;BME280;15344;52.342;-1.290;2023-04-06T05:52:31;99720.70;;;14.18;100.00
28027;BME280;15344;52.342;-1.290;2023-04-06T05:54:56;99717.69;;;13.97;100.00
28027;BME280;15344;52.342;-1.290;2023-04-06T05:57:21;99721.53;;;14.55;100.00
28027;BME280;15344;52.342;-1.290;2023-04-06T05:59:46;99715.09;;;14.43;100.00
28027;BME280;15344;52.342;-1.290;2023-04-06T06:02:11;99719.54;;;14.57;100.00
28027;BME280;15344;52.342;-1.290;2023-04-06T06:04:37;99718.88;;;14.42;100.00
28027;BME280;15344;52.342;-1.290;2023-04-06T06:07:03;99719.81;;;14.26;100.00
28027;BME280;15344;52.342;-1.290;2023-04-06T06:09:27;99715.95;;;13.84;100.00
28027;BME280;15344;52.342;-1.290;2023-04-06T06:11:53;99714.47;;;13.77;100.00
28027;BME280;15344;52.342;-1.290;2023-04-06T06:14:18;99717.45;;;13.54;100.00
28027;BME280;15344;52.342;-1.290;2023-04-06T06:16:44;99720.03;;;14.05;100.00
28027;BME280;15344;52.342;-1.290;2023-04-06T06:19:10;99718.95;;;14.52;100.00
28027;BME280;15344;52.342;-1.290;2023-04-06T06:21:35;99718.85;;;13.60;100.00
28027;BME280;15344;52.342;-1.290;2023-04-06T06:24:00;99720.94;;;14.34;100.00
28027;BME280;15344;52.342;-1.290;2023-04-06T06:26:25;99718.47;;;14.20;100.00
28027;BME280;15344;52.342;-1.290;2023-04-06T06:28:51;99719.38;;;13.79;100.00
28027;BME280;15344;52.342;-1.290;2023-04-06T06:31:16;99723.47;;;14.21;100.00
28027;BME280;15344;52.342;-1.290;2023-04-06T06:33:41;99724.49;;;14.24;100.00
28027;BME280;15344;52.342;-1.290;2023-04-06T06:36:07;99721.12;;;13.29;100.00
28027;BME280;15344;52.342;-1.290;2023-04-06T06:38:33;99725.45;;;13.68;100.00
28027;BME280;15344;52.342;-1.290;2023-04-06T06:40:58;99724.19;;;13.76;100.00
28027;BME280;15344;52.342;-1.290;2023-04-06T06:43:24;99728.06;;;13.17;100.00
28027;BME280;15344;52.342;-1.290;2023-04-06T06:45:50;99730.14;;;12.89;100.00
28027;BME280;15344;52.342;-1.290;2023-04-06T06:48:16;99732.77;;;13.90;100.00
28027;BME280;15344;52.342;-1.290;2023-04-06T06:50:42;99731.51;;;13.68;100.00
28027;BME280;15344;52.342;-1.290;2023-04-06T06:53:07;99732.46;;;14.16;100.00
28027;BME280;15344;52.342;-1.290;2023-04-06T06:55:32;99732.37;;;14.24;100.00
28027;BME280;15344;52.342;-1.290;2023-04-06T06:57:58;99731.87;;;14.24;100.00
28027;BME280;15344;52.342;-1.290;2023-04-06T07:00:23;99733.04;;;13.41;100.00
28027;BME280;15344;52.342;-1.290;2023-04-06T07:02:48;99734.04;;;13.47;100.00
28027;BME280;15344;52.342;-1.290;2023-04-06T07:05:13;99740.73;;;13.30;100.00
28027;BME280;15344;52.342;-1.290;2023-04-06T07:07:39;99742.96;;;14.03;100.00
28027;BME280;15344;52.342;-1.290;2023-04-06T07:10:06;99746.55;;;13.63;100.00
28027;BME280;15344;52.342;-1.290;2023-04-06T07:12:29;99745.32;;;14.13;100.00
28027;BME280;15344;52.342;-1.290;2023-04-06T07:14:55;99744.62;;;14.47;100.00
28027;BME280;15344;52.342;-1.290;2023-04-06T07:17:21;99745.41;;;13.48;100.00
28027;BME280;15344;52.342;-1.290;2023-04-06T07:19:46;99747.32;;;14.15;100.00
28027;BME280;15344;52.342;-1.290;2023-04-06T07:22:11;99748.16;;;14.18;100.00
28027;BME280;15344;52.342;-1.290;2023-04-06T07:24:37;99747.24;;;13.25;100.00
28027;BME280;15344;52.342;-1.290;2023-04-06T07:27:03;99756.84;;;14.17;100.00
28027;BME280;15344;52.342;-1.290;2023-04-06T07:29:29;99754.76;;;13.90;100.00
28027;BME280;15344;52.342;-1.290;2023-04-06T07:31:55;99758.64;;;13.54;100.00
28027;BME280;15344;52.342;-1.290;2023-04-06T07:34:20;99762.05;;;13.15;100.00
28027;BME280;15344;52.342;-1.290;2023-04-06T07:36:46;99768.41;;;14.19;100.00
28027;BME280;15344;52.342;-1.290;2023-04-06T07:39:11;99769.54;;;14.38;100.00
28027;BME280;15344;52.342;-1.290;2023-04-06T07:41:38;99771.46;;;14.57;100.00
28027;BME280;15344;52.342;-1.290;2023-04-06T07:44:03;99770.26;;;14.17;100.00
28027;BME280;15344;52.342;-1.290;2023-04-06T07:46:28;99771.45;;;14.19;100.00
28027;BME280;15344;52.342;-1.290;2023-04-06T07:48:53;99771.28;;;13.81;100.00
28027;BME280;15344;52.342;-1.290;2023-04-06T07:51:18;99773.00;;;13.60;100.00
28027;BME280;15344;52.342;-1.290;2023-04-06T07:53:44;99776.83;;;13.70;100.00
28027;BME280;15344;52.342;-1.290;2023-04-06T07:56:09;99782.38;;;13.82;100.00
28027;BME280;15344;52.342;-1.290;2023-04-06T07:58:34;99784.10;;;13.45;100.00
28027;BME280;15344;52.342;-1.290;2023-04-06T08:01:01;99785.39;;;13.97;100.00
28027;BME280;15344;52.342;-1.290;2023-04-06T08:03:25;99787.21;;;14.52;100.00
28027;BME280;15344;52.342;-1.290;2023-04-06T08:05:50;99791.20;;;14.29;100.00
28027;BME280;15344;52.342;-1.290;2023-04-06T08:08:16;99794.38;;;14.58;100.00
28027;BME280;15344;52.342;-1.290;2023-04-06T08:10:41;99796.97;;;14.22;100.00
28027;BME280;15344;52.342;-1.290;2023-04-06T08:13:08;99799.28;;;14.42;100.00
28027;BME280;15344;52.342;-1.290;2023-04-06T08:15:33;99800.81;;;14.61;100.00
28027;BME280;15344;52.342;-1.290;2023-04-06T08:17:58;99800.85;;;12.75;100.00
28027;BME280;15344;52.342;-1.290;2023-04-06T08:20:29;99800.14;;;13.58;100.00
28027;BME280;15344;52.342;-1.290;2023-04-06T08:22:49;99802.81;;;13.72;100.00
28027;BME280;15344;52.342;-1.290;2023-04-06T08:25:15;99804.06;;;14.04;100.00
28027;BME280;15344;52.342;-1.290;2023-04-06T08:27:40;99803.91;;;13.50;100.00
28027;BME280;15344;52.342;-1.290;2023-04-06T08:30:06;99806.48;;;13.39;100.00
28027;BME280;15344;52.342;-1.290;2023-04-06T08:32:31;99806.26;;;14.16;100.00
28027;BME280;15344;52.342;-1.290;2023-04-06T08:34:56;99804.40;;;12.86;100.00
28027;BME280;15344;52.342;-1.290;2023-04-06T08:37:22;99807.31;;;13.13;100.00
28027;BME280;15344;52.342;-1.290;2023-04-06T08:39:47;99809.13;;;13.15;100.00
28027;BME280;15344;52.342;-1.290;2023-04-06T08:42:19;99809.51;;;13.91;100.00
28027;BME280;15344;52.342;-1.290;2023-04-06T08:44:38;99809.93;;;14.55;100.00
28027;BME280;15344;52.342;-1.290;2023-04-06T08:47:04;99811.70;;;13.64;100.00
28027;BME280;15344;52.342;-1.290;2023-04-06T08:49:28;99819.96;;;15.08;100.00
28027;BME280;15344;52.342;-1.290;2023-04-06T08:51:55;99822.24;;;15.18;100.00
28027;BME280;15344;52.342;-1.290;2023-04-06T08:54:19;99820.16;;;15.27;100.00
28027;BME280;15344;52.342;-1.290;2023-04-06T08:56:44;99814.39;;;15.14;100.00
28027;BME280;15344;52.342;-1.290;2023-04-06T08:59:10;99818.24;;;15.25;100.00
28027;BME280;15344;52.342;-1.290;2023-04-06T09:01:39;99821.84;;;15.25;100.00
28027;BME280;15344;52.342;-1.290;2023-04-06T09:04:01;99823.48;;;14.63;100.00
28027;BME280;15344;52.342;-1.290;2023-04-06T09:06:26;99826.22;;;14.88;100.00
28027;BME280;15344;52.342;-1.290;2023-04-06T09:08:51;99829.34;;;15.09;100.00
28027;BME280;15344;52.342;-1.290;2023-04-06T09:11:16;99828.86;;;15.56;100.00
28027;BME280;15344;52.342;-1.290;2023-04-06T09:13:46;99826.16;;;13.86;100.00
28027;BME280;15344;52.342;-1.290;2023-04-06T09:16:07;99824.21;;;15.64;100.00
28027;BME280;15344;52.342;-1.290;2023-04-06T09:18:33;99833.36;;;15.19;100.00
28027;BME280;15344;52.342;-1.290;2023-04-06T09:20:59;99832.25;;;14.87;100.00
28027;BME280;15344;52.342;-1.290;2023-04-06T09:23:22;99832.28;;;14.96;100.00
28027;BME280;15344;52.342;-1.290;2023-04-06T09:25:48;99828.72;;;15.77;100.00
28027;BME280;15344;52.342;-1.290;2023-04-06T09:28:13;99831.93;;;16.67;97.16
28027;BME280;15344;52.342;-1.290;2023-04-06T09:30:47;99830.36;;;16.37;96.01
28027;BME280;15344;52.342;-1.290;2023-04-06T09:33:04;99831.64;;;16.54;95.54
28027;BME280;15344;52.342;-1.290;2023-04-06T09:35:34;99831.91;;;15.74;94.38
28027;BME280;15344;52.342;-1.290;2023-04-06T09:37:54;99835.09;;;17.22;89.85
28027;BME280;15344;52.342;-1.290;2023-04-06T09:40:24;99836.39;;;17.36;93.03
28027;BME280;15344;52.342;-1.290;2023-04-06T09:42:46;99838.10;;;16.58;87.05
28027;BME280;15344;52.342;-1.290;2023-04-06T09:45:10;99842.14;;;16.80;91.44
28027;BME280;15344;52.342;-1.290;2023-04-06T09:47:36;99845.10;;;17.39;81.98
28027;BME280;15344;52.342;-1.290;2023-04-06T09:50:01;99849.25;;;15.46;91.03
28027;BME280;15344;52.342;-1.290;2023-04-06T09:52:29;99851.73;;;16.29;87.51
28027;BME280;15344;52.342;-1.290;2023-04-06T09:54:51;99856.05;;;16.15;88.85
28027;BME280;15344;52.342;-1.290;2023-04-06T09:57:21;99858.92;;;15.42;88.85
28027;BME280;15344;52.342;-1.290;2023-04-06T09:59:47;99861.84;;;14.41;90.17
28027;BME280;15344;52.342;-1.290;2023-04-06T10:02:06;99871.25;;;14.93;89.63
28027;BME280;15344;52.342;-1.290;2023-04-06T10:04:39;99867.15;;;14.48;94.34
28027;BME280;15344;52.342;-1.290;2023-04-06T10:06:57;99870.96;;;15.13;91.88
28027;BME280;15344;52.342;-1.290;2023-04-06T10:09:25;99873.43;;;14.92;92.35
28027;BME280;15344;52.342;-1.290;2023-04-06T10:11:48;99866.42;;;16.30;95.28
28027;BME280;15344;52.342;-1.290;2023-04-06T10:14:12;99866.93;;;17.38;90.71
28027;BME280;15344;52.342;-1.290;2023-04-06T10:16:37;99868.28;;;17.97;83.26
28027;BME280;15344;52.342;-1.290;2023-04-06T10:19:09;99871.51;;;18.76;77.49
28027;BME280;15344;52.342;-1.290;2023-04-06T10:21:28;99875.99;;;19.09;77.55
28027;BME280;15344;52.342;-1.290;2023-04-06T10:23:57;99876.84;;;19.29;70.85
28027;BME280;15344;52.342;-1.290;2023-04-06T10:26:20;99878.78;;;19.47;71.23
28027;BME280;15344;52.342;-1.290;2023-04-06T10:28:45;99881.20;;;18.59;67.08
28027;BME280;15344;52.342;-1.290;2023-04-06T10:31:08;99884.50;;;19.20;70.65
28027;BME280;15344;52.342;-1.290;2023-04-06T10:33:33;99886.28;;;20.04;69.08
28027;BME280;15344;52.342;-1.290;2023-04-06T10:40:49;99890.32;;;18.27;66.44
28027;BME280;15344;52.342;-1.290;2023-04-06T10:43:18;99890.38;;;19.40;69.36
28027;BME280;15344;52.342;-1.290;2023-04-06T10:45:39;99890.38;;;18.73;60.64
28027;BME280;15344;52.342;-1.290;2023-04-06T10:50:29;99886.17;;;19.96;62.95
28027;BME280;15344;52.342;-1.290;2023-04-06T10:52:58;99887.01;;;18.99;58.40
28027;BME280;15344;52.342;-1.290;2023-04-06T10:55:19;99882.70;;;19.19;60.30
28027;BME280;15344;52.342;-1.290;2023-04-06T10:57:46;99880.28;;;18.22;61.28
28027;BME280;15344;52.342;-1.290;2023-04-06T11:00:12;99882.02;;;18.83;61.75
28027;BME280;15344;52.342;-1.290;2023-04-06T11:02:35;99873.91;;;19.54;59.68
28027;BME280;15344;52.342;-1.290;2023-04-06T11:05:00;99870.77;;;19.78;60.73
28027;BME280;15344;52.342;-1.290;2023-04-06T11:07:25;99869.99;;;19.68;60.06
28027;BME280;15344;52.342;-1.290;2023-04-06T11:09:50;99872.68;;;19.54;62.00
28027;BME280;15344;52.342;-1.290;2023-04-06T11:12:22;99875.86;;;19.80;54.60
28027;BME280;15344;52.342;-1.290;2023-04-06T11:14:40;99879.18;;;20.21;55.28
28027;BME280;15344;52.342;-1.290;2023-04-06T11:17:05;99893.74;;;18.80;55.11
28027;BME280;15344;52.342;-1.290;2023-04-06T11:19:31;99901.98;;;16.52;65.62
28027;BME280;15344;52.342;-1.290;2023-04-06T11:21:55;99908.14;;;14.82;78.07
28027;BME280;15344;52.342;-1.290;2023-04-06T11:24:22;99903.66;;;16.89;73.44
28027;BME280;15344;52.342;-1.290;2023-04-06T11:26:48;99900.68;;;16.29;80.06
28027;BME280;15344;52.342;-1.290;2023-04-06T11:29:17;99902.28;;;16.02;86.68
28027;BME280;15344;52.342;-1.290;2023-04-06T11:31:41;99902.90;;;15.15;76.50
28027;BME280;15344;52.342;-1.290;2023-04-06T11:34:01;99903.86;;;16.85;75.09
28027;BME280;15344;52.342;-1.290;2023-04-06T11:36:28;99906.48;;;14.55;78.61
28027;BME280;15344;52.342;-1.290;2023-04-06T11:38:51;99904.02;;;14.68;79.52
28027;BME280;15344;52.342;-1.290;2023-04-06T11:41:17;99901.09;;;16.55;74.12
28027;BME280;15344;52.342;-1.290;2023-04-06T11:43:47;99896.15;;;16.71;75.81
28027;BME280;15344;52.342;-1.290;2023-04-06T11:46:07;99898.79;;;15.77;71.96
28027;BME280;15344;52.342;-1.290;2023-04-06T11:50:59;99898.79;;;17.75;73.51
28027;BME280;15344;52.342;-1.290;2023-04-06T11:53:23;99900.03;;;17.75;70.11
28027;BME280;15344;52.342;-1.290;2023-04-06T11:55:54;99901.28;;;16.12;68.51
28027;BME280;15344;52.342;-1.290;2023-04-06T11:58:13;99907.15;;;15.27;69.84
28027;BME280;15344;52.342;-1.290;2023-04-06T12:00:39;99906.64;;;16.17;70.64
28027;BME280;15344;52.342;-1.290;2023-04-06T12:03:04;99911.83;;;16.78;64.86
28027;BME280;15344;52.342;-1.290;2023-04-06T12:05:29;99915.65;;;15.28;64.33
28027;BME280;15344;52.342;-1.290;2023-04-06T12:07:54;99914.95;;;14.74;63.51
28027;BME280;15344;52.342;-1.290;2023-04-06T12:10:19;99915.04;;;14.49;67.62
28027;BME280;15344;52.342;-1.290;2023-04-06T12:12:45;99917.81;;;14.71;72.62
28027;BME280;15344;52.342;-1.290;2023-04-06T12:15:11;99918.55;;;14.80;68.75
28027;BME280;15344;52.342;-1.290;2023-04-06T12:17:35;99926.28;;;14.94;72.94
28027;BME280;15344;52.342;-1.290;2023-04-06T12:20:00;99925.17;;;14.97;68.61
28027;BME280;15344;52.342;-1.290;2023-04-06T12:22:26;99925.60;;;14.72;66.54
28027;BME280;15344;52.342;-1.290;2023-04-06T12:24:51;99927.40;;;16.12;68.13
28027;BME280;15344;52.342;-1.290;2023-04-06T12:27:16;99933.86;;;15.74;65.55
28027;BME280;15344;52.342;-1.290;2023-04-06T12:29:42;99943.24;;;14.41;69.50
28027;BME280;15344;52.342;-1.290;2023-04-06T12:32:06;99944.48;;;14.75;63.70
28027;BME280;15344;52.342;-1.290;2023-04-06T12:34:32;99944.46;;;13.43;69.06
28027;BME280;15344;52.342;-1.290;2023-04-06T12:36:57;99947.47;;;14.61;68.11
28027;BME280;15344;52.342;-1.290;2023-04-06T12:39:22;99949.50;;;14.53;64.54
28027;BME280;15344;52.342;-1.290;2023-04-06T12:41:47;99946.12;;;14.46;61.69